sensor_id;sensor_type;location;lat;lon;timestamp;P1;durP1;ratioP1;P2;durP2;ratioP2
44646;SDS011;56315;-33.902;151.160;2022-07-22T00:01:53;16.17;;;4.93;;
44646;SDS011;56315;-33.902;151.160;2022-07-22T00:04:20;13.55;;;3.78;;
44646;SDS011;56315;-33.902;151.160;2022-07-22T00:06:48;18.25;;;4.80;;
44646;SDS011;56315;-33.902;151.160;2022-07-22T00:09:15;21.58;;;7.55;;
44646;SDS011;56315;-33.902;151.160;2022-07-22T00:11:42;23.02;;;8.70;;
44646;SDS011;56315;-33.902;151.160;2022-07-22T00:14:10;18.30;;;5.85;;
44646;SDS011;56315;-33.902;151.160;2022-07-22T00:16:38;15.20;;;4.18;;
44646;SDS011;56315;-33.902;151.160;2022-07-22T00:19:05;12.65;;;2.63;;
44646;SDS011;56315;-33.902;151.160;2022-07-22T00:21:33;14.25;;;4.50;;
44646;SDS011;56315;-33.902;151.160;2022-07-22T00:24:00;17.92;;;4.75;;
44646;SDS011;56315;-33.902;151.160;2022-07-22T00:26:28;13.98;;;3.08;;
44646;SDS011;56315;-33.902;151.160;2022-07-22T00:28:55;12.00;;;2.90;;
44646;SDS011;56315;-33.902;151.160;2022-07-22T00:31:23;6.32;;;1.33;;
44646;SDS011;56315;-33.902;151.160;2022-07-22T00:33:50;7.82;;;1.52;;
44646;SDS011;56315;-33.902;151.160;2022-07-22T00:36:18;9.13;;;1.23;;
44646;SDS011;56315;-33.902;151.160;2022-07-22T00:38:45;11.38;;;2.03;;
44646;SDS011;56315;-33.902;151.160;2022-07-22T00:41:12;10.02;;;1.98;;
44646;SDS011;56315;-33.902;151.160;2022-07-22T00:43:53;4.68;;;1.08;;
44646;SDS011;56315;-33.902;151.160;2022-07-22T00:46:24;7.18;;;1.63;;
44646;SDS011;56315;-33.902;151.160;2022-07-22T00:48:52;5.95;;;1.15;;
44646;SDS011;56315;-33.902;151.160;2022-07-22T00:51:21;7.43;;;1.63;;
44646;SDS011;56315;-33.902;151.160;2022-07-22T00:53:49;5.80;;;1.10;;
44646;SDS011;56315;-33.902;151.160;2022-07-22T00:56:17;4.82;;;1.35;;
44646;SDS011;56315;-33.902;151.160;2022-07-22T00:58:46;9.23;;;1.13;;
44646;SDS011;56315;-33.902;151.160;2022-07-22T01:01:14;7.53;;;1.75;;
44646;SDS011;56315;-33.902;151.160;2022-07-22T01:03:42;4.78;;;1.38;;
44646;SDS011;56315;-33.902;151.160;2022-07-22T01:06:10;7.78;;;1.88;;
44646;SDS011;56315;-33.902;151.160;2022-07-22T01:08:38;9.25;;;1.88;;
44646;SDS011;56315;-33.902;151.160;2022-07-22T01:11:06;6.72;;;1.60;;
44646;SDS011;56315;-33.902;151.160;2022-07-22T01:13:38;9.15;;;1.88;;
44646;SDS011;56315;-33.902;151.160;2022-07-22T01:16:07;7.78;;;1.58;;
44646;SDS011;56315;-33.902;151.160;2022-07-22T01:18:36;6.55;;;1.30;;
44646;SDS011;56315;-33.902;151.160;2022-07-22T01:21:04;9.32;;;1.73;;
44646;SDS011;56315;-33.902;151.160;2022-07-22T01:23:33;6.28;;;1.35;;
44646;SDS011;56315;-33.902;151.160;2022-07-22T01:26:02;5.78;;;1.50;;
44646;SDS011;56315;-33.902;151.160;2022-07-22T01:28:30;9.05;;;2.63;;
44646;SDS011;56315;-33.902;151.160;2022-07-22T01:30:58;11.43;;;1.80;;
44646;SDS011;56315;-33.902;151.160;2022-07-22T01:33:25;8.45;;;2.15;;
44646;SDS011;56315;-33.902;151.160;2022-07-22T01:35:53;5.68;;;1.38;;
44646;SDS011;56315;-33.902;151.160;2022-07-22T01:38:20;7.10;;;1.85;;
44646;SDS011;56315;-33.902;151.160;2022-07-22T01:40:47;5.35;;;1.00;;
44646;SDS011;56315;-33.902;151.160;2022-07-22T01:43:15;11.30;;;1.88;;
44646;SDS011;56315;-33.902;151.160;2022-07-22T01:45:44;8.23;;;1.52;;
44646;SDS011;56315;-33.902;151.160;2022-07-22T01:48:13;5.82;;;1.40;;
44646;SDS011;56315;-33.902;151.160;2022-07-22T01:50:41;9.45;;;2.13;;
44646;SDS011;56315;-33.902;151.160;2022-07-22T01:53:09;9.07;;;1.85;;
44646;SDS011;56315;-33.902;151.160;2022-07-22T01:55:36;6.35;;;1.90;;
44646;SDS011;56315;-33.902;151.160;2022-07-22T01:58:04;8.05;;;1.70;;
44646;SDS011;56315;-33.902;151.160;2022-07-22T02:00:32;6.45;;;1.13;;
44646;SDS011;56315;-33.902;151.160;2022-07-22T02:03:00;5.20;;;1.50;;
44646;SDS011;56315;-33.902;151.160;2022-07-22T02:05:27;5.65;;;1.45;;
44646;SDS011;56315;-33.902;151.160;2022-07-22T02:08:04;6.57;;;1.58;;
44646;SDS011;56315;-33.902;151.160;2022-07-22T02:10:35;5.05;;;1.52;;
44646;SDS011;56315;-33.902;151.160;2022-07-22T02:13:03;9.65;;;1.90;;
44646;SDS011;56315;-33.902;151.160;2022-07-22T02:15:31;8.90;;;1.50;;
44646;SDS011;56315;-33.902;151.160;2022-07-22T02:17:59;19.88;;;2.13;;
44646;SDS011;56315;-33.902;151.160;2022-07-22T02:20:26;17.88;;;1.70;;
44646;SDS011;56315;-33.902;151.160;2022-07-22T02:22:54;9.45;;;1.60;;
44646;SDS011;56315;-33.902;151.160;2022-07-22T02:25:21;10.32;;;2.50;;
44646;SDS011;56315;-33.902;151.160;2022-07-22T02:27:49;8.95;;;1.70;;
44646;SDS011;56315;-33.902;151.160;2022-07-22T02:30:16;6.68;;;1.48;;
44646;SDS011;56315;-33.902;151.160;2022-07-22T02:32:43;6.97;;;1.85;;
44646;SDS011;56315;-33.902;151.160;2022-07-22T02:35:11;10.88;;;1.83;;
44646;SDS011;56315;-33.902;151.160;2022-07-22T02:37:38;8.07;;;1.38;;
44646;SDS011;56315;-33.902;151.160;2022-07-22T02:40:06;11.77;;;1.75;;
44646;SDS011;56315;-33.902;151.160;2022-07-22T02:42:33;8.23;;;1.58;;
44646;SDS011;56315;-33.902;151.160;2022-07-22T02:45:01;7.70;;;1.63;;
44646;SDS011;56315;-33.902;151.160;2022-07-22T02:47:29;12.02;;;1.77;;
44646;SDS011;56315;-33.902;151.160;2022-07-22T02:49:57;13.13;;;2.00;;
44646;SDS011;56315;-33.902;151.160;2022-07-22T02:52:24;10.07;;;1.90;;
44646;SDS011;56315;-33.902;151.160;2022-07-22T02:54:51;7.70;;;1.98;;
44646;SDS011;56315;-33.902;151.160;2022-07-22T02:57:19;7.10;;;1.52;;
44646;SDS011;56315;-33.902;151.160;2022-07-22T02:59:46;6.78;;;1.40;;
44646;SDS011;56315;-33.902;151.160;2022-07-22T03:02:14;9.02;;;1.63;;
44646;SDS011;56315;-33.902;151.160;2022-07-22T03:04:41;10.27;;;2.10;;
44646;SDS011;56315;-33.902;151.160;2022-07-22T03:07:08;8.32;;;2.42;;
44646;SDS011;56315;-33.902;151.160;2022-07-22T03:09:36;10.60;;;1.88;;
44646;SDS011;56315;-33.902;151.160;2022-07-22T03:12:03;9.02;;;1.88;;
44646;SDS011;56315;-33.902;151.160;2022-07-22T03:14:30;8.25;;;1.52;;
44646;SDS011;56315;-33.902;151.160;2022-07-22T03:16:58;5.38;;;0.93;;
44646;SDS011;56315;-33.902;151.160;2022-07-22T03:19:25;7.55;;;1.58;;
44646;SDS011;56315;-33.902;151.160;2022-07-22T03:21:52;10.13;;;2.30;;
44646;SDS011;56315;-33.902;151.160;2022-07-22T03:24:20;8.90;;;1.60;;
44646;SDS011;56315;-33.902;151.160;2022-07-22T03:26:47;9.43;;;1.77;;
44646;SDS011;56315;-33.902;151.160;2022-07-22T03:29:14;9.77;;;1.35;;
44646;SDS011;56315;-33.902;151.160;2022-07-22T03:31:42;12.70;;;2.08;;
44646;SDS011;56315;-33.902;151.160;2022-07-22T03:34:09;11.48;;;2.75;;
44646;SDS011;56315;-33.902;151.160;2022-07-22T03:36:36;12.88;;;2.33;;
44646;SDS011;56315;-33.902;151.160;2022-07-22T03:39:04;10.27;;;2.30;;
44646;SDS011;56315;-33.902;151.160;2022-07-22T03:41:31;10.45;;;2.10;;
44646;SDS011;56315;-33.902;151.160;2022-07-22T03:43:59;14.77;;;2.33;;
44646;SDS011;56315;-33.902;151.160;2022-07-22T03:46:26;12.07;;;2.25;;
44646;SDS011;56315;-33.902;151.160;2022-07-22T03:48:53;7.95;;;1.95;;
44646;SDS011;56315;-33.902;151.160;2022-07-22T03:51:21;9.68;;;1.92;;
44646;SDS011;56315;-33.902;151.160;2022-07-22T03:53:48;10.15;;;2.03;;
44646;SDS011;56315;-33.902;151.160;2022-07-22T03:56:15;10.90;;;2.00;;
44646;SDS011;56315;-33.902;151.160;2022-07-22T03:58:42;9.73;;;2.28;;
44646;SDS011;56315;-33.902;151.160;2022-07-22T04:01:10;9.20;;;1.65;;
44646;SDS011;56315;-33.902;151.160;2022-07-22T04:03:37;11.82;;;1.80;;
44646;SDS011;56315;-33.902;151.160;2022-07-22T04:06:05;12.45;;;2.25;;
44646;SDS011;56315;-33.902;151.160;2022-07-22T04:08:33;13.38;;;2.03;;
44646;SDS011;56315;-33.902;151.160;2022-07-22T04:11:00;6.45;;;1.60;;
44646;SDS011;56315;-33.902;151.160;2022-07-22T04:13:28;10.85;;;1.92;;
44646;SDS011;56315;-33.902;151.160;2022-07-22T04:15:55;8.48;;;1.80;;
44646;SDS011;56315;-33.902;151.160;2022-07-22T04:18:23;17.40;;;2.53;;
44646;SDS011;56315;-33.902;151.160;2022-07-22T04:20:50;13.45;;;2.30;;
44646;SDS011;56315;-33.902;151.160;2022-07-22T04:23:17;10.93;;;1.63;;
44646;SDS011;56315;-33.902;151.160;2022-07-22T04:25:45;12.63;;;1.83;;
44646;SDS011;56315;-33.902;151.160;2022-07-22T04:28:12;8.73;;;2.05;;
44646;SDS011;56315;-33.902;151.160;2022-07-22T04:30:39;10.68;;;2.17;;
44646;SDS011;56315;-33.902;151.160;2022-07-22T04:33:07;10.93;;;2.03;;
44646;SDS011;56315;-33.902;151.160;2022-07-22T04:35:34;11.52;;;2.05;;
44646;SDS011;56315;-33.902;151.160;2022-07-22T04:38:02;8.27;;;1.95;;
44646;SDS011;56315;-33.902;151.160;2022-07-22T04:40:29;11.18;;;2.80;;
44646;SDS011;56315;-33.902;151.160;2022-07-22T04:42:57;11.32;;;2.15;;
44646;SDS011;56315;-33.902;151.160;2022-07-22T04:45:24;13.27;;;3.13;;
44646;SDS011;56315;-33.902;151.160;2022-07-22T04:47:52;12.57;;;3.10;;
44646;SDS011;56315;-33.902;151.160;2022-07-22T04:50:19;13.25;;;5.72;;
44646;SDS011;56315;-33.902;151.160;2022-07-22T04:52:47;10.15;;;3.40;;
44646;SDS011;56315;-33.902;151.160;2022-07-22T04:55:16;18.63;;;3.22;;
44646;SDS011;56315;-33.902;151.160;2022-07-22T04:57:44;19.48;;;2.45;;
44646;SDS011;56315;-33.902;151.160;2022-07-22T05:00:11;10.43;;;2.00;;
44646;SDS011;56315;-33.902;151.160;2022-07-22T05:02:41;10.10;;;1.88;;
44646;SDS011;56315;-33.902;151.160;2022-07-22T05:05:09;12.65;;;2.35;;
44646;SDS011;56315;-33.902;151.160;2022-07-22T05:07:37;11.75;;;2.50;;
44646;SDS011;56315;-33.902;151.160;2022-07-22T05:10:04;12.93;;;2.47;;
44646;SDS011;56315;-33.902;151.160;2022-07-22T05:12:32;15.88;;;2.20;;
44646;SDS011;56315;-33.902;151.160;2022-07-22T05:14:59;16.40;;;2.63;;
44646;SDS011;56315;-33.902;151.160;2022-07-22T05:17:27;17.23;;;3.25;;
44646;SDS011;56315;-33.902;151.160;2022-07-22T05:19:55;14.77;;;3.15;;
44646;SDS011;56315;-33.902;151.160;2022-07-22T05:22:22;18.02;;;2.90;;
44646;SDS011;56315;-33.902;151.160;2022-07-22T05:24:49;11.75;;;2.40;;
44646;SDS011;56315;-33.902;151.160;2022-07-22T05:27:17;10.80;;;2.15;;
44646;SDS011;56315;-33.902;151.160;2022-07-22T05:29:44;19.88;;;3.42;;
44646;SDS011;56315;-33.902;151.160;2022-07-22T05:32:11;14.48;;;2.10;;
44646;SDS011;56315;-33.902;151.160;2022-07-22T05:34:39;15.98;;;2.65;;
44646;SDS011;56315;-33.902;151.160;2022-07-22T05:37:06;14.18;;;2.15;;
44646;SDS011;56315;-33.902;151.160;2022-07-22T05:39:33;13.80;;;2.17;;
44646;SDS011;56315;-33.902;151.160;2022-07-22T05:42:01;12.23;;;2.25;;
44646;SDS011;56315;-33.902;151.160;2022-07-22T05:44:28;12.00;;;2.35;;
44646;SDS011;56315;-33.902;151.160;2022-07-22T05:46:55;13.70;;;2.20;;
44646;SDS011;56315;-33.902;151.160;2022-07-22T05:49:22;16.10;;;3.30;;
44646;SDS011;56315;-33.902;151.160;2022-07-22T05:51:52;12.50;;;1.85;;
44646;SDS011;56315;-33.902;151.160;2022-07-22T05:54:20;15.50;;;1.95;;
44646;SDS011;56315;-33.902;151.160;2022-07-22T05:56:47;14.07;;;1.75;;
44646;SDS011;56315;-33.902;151.160;2022-07-22T05:59:14;16.75;;;3.70;;
44646;SDS011;56315;-33.902;151.160;2022-07-22T06:01:42;14.18;;;2.10;;
44646;SDS011;56315;-33.902;151.160;2022-07-22T06:04:09;21.02;;;2.58;;
44646;SDS011;56315;-33.902;151.160;2022-07-22T06:06:36;15.00;;;2.60;;
44646;SDS011;56315;-33.902;151.160;2022-07-22T06:09:05;12.75;;;2.58;;
44646;SDS011;56315;-33.902;151.160;2022-07-22T06:11:32;14.82;;;2.50;;
44646;SDS011;56315;-33.902;151.160;2022-07-22T06:13:59;14.70;;;2.47;;
44646;SDS011;56315;-33.902;151.160;2022-07-22T06:16:27;14.38;;;2.13;;
44646;SDS011;56315;-33.902;151.160;2022-07-22T06:18:54;13.95;;;2.58;;
44646;SDS011;56315;-33.902;151.160;2022-07-22T06:21:22;8.55;;;1.70;;
44646;SDS011;56315;-33.902;151.160;2022-07-22T06:23:49;14.38;;;2.67;;
44646;SDS011;56315;-33.902;151.160;2022-07-22T06:26:17;10.65;;;2.00;;
44646;SDS011;56315;-33.902;151.160;2022-07-22T06:28:44;16.67;;;2.38;;
44646;SDS011;56315;-33.902;151.160;2022-07-22T06:31:11;11.43;;;1.80;;
44646;SDS011;56315;-33.902;151.160;2022-07-22T06:33:39;12.05;;;1.30;;
44646;SDS011;56315;-33.902;151.160;2022-07-22T06:36:06;12.68;;;2.40;;
44646;SDS011;56315;-33.902;151.160;2022-07-22T06:38:34;11.82;;;2.05;;
44646;SDS011;56315;-33.902;151.160;2022-07-22T06:41:01;14.48;;;2.15;;
44646;SDS011;56315;-33.902;151.160;2022-07-22T06:43:28;10.82;;;1.88;;
44646;SDS011;56315;-33.902;151.160;2022-07-22T06:45:56;10.82;;;1.60;;
44646;SDS011;56315;-33.902;151.160;2022-07-22T06:48:23;11.40;;;1.80;;
44646;SDS011;56315;-33.902;151.160;2022-07-22T06:50:51;9.77;;;1.50;;
44646;SDS011;56315;-33.902;151.160;2022-07-22T06:53:18;14.27;;;2.50;;
44646;SDS011;56315;-33.902;151.160;2022-07-22T06:55:46;8.98;;;1.92;;
44646;SDS011;56315;-33.902;151.160;2022-07-22T06:58:13;19.48;;;2.00;;
44646;SDS011;56315;-33.902;151.160;2022-07-22T07:00:40;11.00;;;1.90;;
44646;SDS011;56315;-33.902;151.160;2022-07-22T07:03:08;11.95;;;2.22;;
44646;SDS011;56315;-33.902;151.160;2022-07-22T07:05:35;12.43;;;1.75;;
44646;SDS011;56315;-33.902;151.160;2022-07-22T07:08:03;12.85;;;2.28;;
44646;SDS011;56315;-33.902;151.160;2022-07-22T07:10:30;17.92;;;3.05;;
44646;SDS011;56315;-33.902;151.160;2022-07-22T07:12:58;11.10;;;2.22;;
44646;SDS011;56315;-33.902;151.160;2022-07-22T07:15:26;10.20;;;2.00;;
44646;SDS011;56315;-33.902;151.160;2022-07-22T07:17:54;11.05;;;2.10;;
44646;SDS011;56315;-33.902;151.160;2022-07-22T07:20:23;7.68;;;1.55;;
44646;SDS011;56315;-33.902;151.160;2022-07-22T07:22:51;10.48;;;2.03;;
44646;SDS011;56315;-33.902;151.160;2022-07-22T07:25:19;11.15;;;2.03;;
44646;SDS011;56315;-33.902;151.160;2022-07-22T07:27:48;11.93;;;1.80;;
44646;SDS011;56315;-33.902;151.160;2022-07-22T07:30:16;11.57;;;1.98;;
44646;SDS011;56315;-33.902;151.160;2022-07-22T07:32:44;11.75;;;2.05;;
44646;SDS011;56315;-33.902;151.160;2022-07-22T07:35:11;6.30;;;1.23;;
44646;SDS011;56315;-33.902;151.160;2022-07-22T07:37:38;7.00;;;1.92;;
44646;SDS011;56315;-33.902;151.160;2022-07-22T07:40:06;8.27;;;2.15;;
44646;SDS011;56315;-33.902;151.160;2022-07-22T07:42:33;14.85;;;2.05;;
44646;SDS011;56315;-33.902;151.160;2022-07-22T07:45:01;12.27;;;1.73;;
44646;SDS011;56315;-33.902;151.160;2022-07-22T07:47:29;17.15;;;2.75;;
44646;SDS011;56315;-33.902;151.160;2022-07-22T07:49:57;8.85;;;1.63;;
44646;SDS011;56315;-33.902;151.160;2022-07-22T07:52:28;11.05;;;2.25;;
44646;SDS011;56315;-33.902;151.160;2022-07-22T07:54:55;8.35;;;1.92;;
44646;SDS011;56315;-33.902;151.160;2022-07-22T07:57:23;8.60;;;1.70;;
44646;SDS011;56315;-33.902;151.160;2022-07-22T07:59:50;10.10;;;2.00;;
44646;SDS011;56315;-33.902;151.160;2022-07-22T08:02:17;13.88;;;2.28;;
44646;SDS011;56315;-33.902;151.160;2022-07-22T08:04:45;11.77;;;2.63;;
44646;SDS011;56315;-33.902;151.160;2022-07-22T08:07:13;8.90;;;1.40;;
44646;SDS011;56315;-33.902;151.160;2022-07-22T08:09:40;9.60;;;1.63;;
44646;SDS011;56315;-33.902;151.160;2022-07-22T08:12:07;10.55;;;1.67;;
44646;SDS011;56315;-33.902;151.160;2022-07-22T08:14:35;7.65;;;1.45;;
44646;SDS011;56315;-33.902;151.160;2022-07-22T08:17:03;7.28;;;1.67;;
44646;SDS011;56315;-33.902;151.160;2022-07-22T08:19:31;10.80;;;2.03;;
44646;SDS011;56315;-33.902;151.160;2022-07-22T08:21:58;9.55;;;1.75;;
44646;SDS011;56315;-33.902;151.160;2022-07-22T08:24:26;8.48;;;1.80;;
44646;SDS011;56315;-33.902;151.160;2022-07-22T08:26:53;9.13;;;1.30;;
44646;SDS011;56315;-33.902;151.160;2022-07-22T08:29:20;7.78;;;1.63;;
44646;SDS011;56315;-33.902;151.160;2022-07-22T08:31:48;6.13;;;1.52;;
44646;SDS011;56315;-33.902;151.160;2022-07-22T08:34:15;8.75;;;2.22;;
44646;SDS011;56315;-33.902;151.160;2022-07-22T08:36:42;8.25;;;1.52;;
44646;SDS011;56315;-33.902;151.160;2022-07-22T08:39:10;12.32;;;2.28;;
44646;SDS011;56315;-33.902;151.160;2022-07-22T08:41:38;6.25;;;1.92;;
44646;SDS011;56315;-33.902;151.160;2022-07-22T08:44:06;5.60;;;1.60;;
44646;SDS011;56315;-33.902;151.160;2022-07-22T08:46:35;12.88;;;2.72;;
44646;SDS011;56315;-33.902;151.160;2022-07-22T08:49:03;11.45;;;2.53;;
44646;SDS011;56315;-33.902;151.160;2022-07-22T08:51:32;10.65;;;2.45;;
44646;SDS011;56315;-33.902;151.160;2022-07-22T08:54:00;8.00;;;2.17;;
44646;SDS011;56315;-33.902;151.160;2022-07-22T08:56:27;10.23;;;1.88;;
44646;SDS011;56315;-33.902;151.160;2022-07-22T08:58:54;9.82;;;1.58;;
44646;SDS011;56315;-33.902;151.160;2022-07-22T09:01:22;6.25;;;1.42;;
44646;SDS011;56315;-33.902;151.160;2022-07-22T09:03:55;13.52;;;3.53;;
44646;SDS011;56315;-33.902;151.160;2022-07-22T09:08:52;8.93;;;1.80;;
44646;SDS011;56315;-33.902;151.160;2022-07-22T09:11:20;7.97;;;1.75;;
44646;SDS011;56315;-33.902;151.160;2022-07-22T09:13:49;10.27;;;1.80;;
44646;SDS011;56315;-33.902;151.160;2022-07-22T09:16:39;9.50;;;2.40;;
44646;SDS011;56315;-33.902;151.160;2022-07-22T09:19:04;9.82;;;2.13;;
44646;SDS011;56315;-33.902;151.160;2022-07-22T09:21:34;6.82;;;1.45;;
44646;SDS011;56315;-33.902;151.160;2022-07-22T09:24:05;6.20;;;1.33;;
44646;SDS011;56315;-33.902;151.160;2022-07-22T09:26:34;7.18;;;1.20;;
44646;SDS011;56315;-33.902;151.160;2022-07-22T09:29:04;5.05;;;1.13;;
44646;SDS011;56315;-33.902;151.160;2022-07-22T09:31:33;5.65;;;1.73;;
44646;SDS011;56315;-33.902;151.160;2022-07-22T09:34:03;7.90;;;2.33;;
44646;SDS011;56315;-33.902;151.160;2022-07-22T09:36:31;5.63;;;1.60;;
44646;SDS011;56315;-33.902;151.160;2022-07-22T09:39:27;5.93;;;1.50;;
44646;SDS011;56315;-33.902;151.160;2022-07-22T09:41:59;5.32;;;1.60;;
44646;SDS011;56315;-33.902;151.160;2022-07-22T09:44:28;6.28;;;2.10;;
44646;SDS011;56315;-33.902;151.160;2022-07-22T09:46:55;8.20;;;1.90;;
44646;SDS011;56315;-33.902;151.160;2022-07-22T09:49:30;6.38;;;2.10;;
44646;SDS011;56315;-33.902;151.160;2022-07-22T09:52:04;6.53;;;1.80;;
44646;SDS011;56315;-33.902;151.160;2022-07-22T09:54:32;6.15;;;2.05;;
44646;SDS011;56315;-33.902;151.160;2022-07-22T09:56:59;10.70;;;4.50;;
44646;SDS011;56315;-33.902;151.160;2022-07-22T09:59:27;9.27;;;3.63;;
44646;SDS011;56315;-33.902;151.160;2022-07-22T10:01:55;12.90;;;4.35;;
44646;SDS011;56315;-33.902;151.160;2022-07-22T10:04:24;12.68;;;3.92;;
44646;SDS011;56315;-33.902;151.160;2022-07-22T10:06:56;14.05;;;4.07;;
44646;SDS011;56315;-33.902;151.160;2022-07-22T10:09:25;9.77;;;3.85;;
44646;SDS011;56315;-33.902;151.160;2022-07-22T10:11:54;13.88;;;3.92;;
44646;SDS011;56315;-33.902;151.160;2022-07-22T10:14:22;13.05;;;2.38;;
44646;SDS011;56315;-33.902;151.160;2022-07-22T10:16:51;8.93;;;2.00;;
44646;SDS011;56315;-33.902;151.160;2022-07-22T10:19:19;9.57;;;2.88;;
44646;SDS011;56315;-33.902;151.160;2022-07-22T10:21:47;10.57;;;1.85;;
44646;SDS011;56315;-33.902;151.160;2022-07-22T10:24:15;14.43;;;2.28;;
44646;SDS011;56315;-33.902;151.160;2022-07-22T10:26:56;12.23;;;2.40;;
44646;SDS011;56315;-33.902;151.160;2022-07-22T10:32:38;7.10;;;1.60;;
44646;SDS011;56315;-33.902;151.160;2022-07-22T10:40:12;9.00;;;2.25;;
44646;SDS011;56315;-33.902;151.160;2022-07-22T10:45:27;8.38;;;2.45;;
44646;SDS011;56315;-33.902;151.160;2022-07-22T10:48:09;10.10;;;2.10;;
44646;SDS011;56315;-33.902;151.160;2022-07-22T10:50:50;13.90;;;3.13;;
44646;SDS011;56315;-33.902;151.160;2022-07-22T10:53:21;11.18;;;3.33;;
44646;SDS011;56315;-33.902;151.160;2022-07-22T10:56:15;11.25;;;2.83;;
44646;SDS011;56315;-33.902;151.160;2022-07-22T10:58:47;8.65;;;2.83;;
44646;SDS011;56315;-33.902;151.160;2022-07-22T11:01:19;11.50;;;3.17;;
44646;SDS011;56315;-33.902;151.160;2022-07-22T11:03:49;7.13;;;2.42;;
44646;SDS011;56315;-33.902;151.160;2022-07-22T11:06:21;10.75;;;3.38;;
44646;SDS011;56315;-33.902;151.160;2022-07-22T11:08:58;8.07;;;2.88;;
44646;SDS011;56315;-33.902;151.160;2022-07-22T11:11:40;12.70;;;3.33;;
44646;SDS011;56315;-33.902;151.160;2022-07-22T11:14:11;9.88;;;2.60;;
44646;SDS011;56315;-33.902;151.160;2022-07-22T11:16:47;6.10;;;1.90;;
44646;SDS011;56315;-33.902;151.160;2022-07-22T11:19:19;7.57;;;1.83;;
44646;SDS011;56315;-33.902;151.160;2022-07-22T11:21:56;8.65;;;1.75;;
44646;SDS011;56315;-33.902;151.160;2022-07-22T11:24:27;6.95;;;1.55;;
44646;SDS011;56315;-33.902;151.160;2022-07-22T11:26:56;5.13;;;1.50;;
44646;SDS011;56315;-33.902;151.160;2022-07-22T11:29:25;7.35;;;1.92;;
44646;SDS011;56315;-33.902;151.160;2022-07-22T11:31:59;10.77;;;2.42;;
44646;SDS011;56315;-33.902;151.160;2022-07-22T11:34:28;6.78;;;1.50;;
44646;SDS011;56315;-33.902;151.160;2022-07-22T11:36:56;7.93;;;2.03;;
44646;SDS011;56315;-33.902;151.160;2022-07-22T11:39:25;8.38;;;2.20;;
44646;SDS011;56315;-33.902;151.160;2022-07-22T11:41:55;7.78;;;2.40;;
44646;SDS011;56315;-33.902;151.160;2022-07-22T11:44:24;7.60;;;3.97;;
44646;SDS011;56315;-33.902;151.160;2022-07-22T11:46:53;6.70;;;3.00;;
44646;SDS011;56315;-33.902;151.160;2022-07-22T11:49:26;4.80;;;2.55;;
44646;SDS011;56315;-33.902;151.160;2022-07-22T11:51:55;11.20;;;3.60;;
44646;SDS011;56315;-33.902;151.160;2022-07-22T11:54:23;12.02;;;4.03;;
44646;SDS011;56315;-33.902;151.160;2022-07-22T11:56:50;8.50;;;3.78;;
44646;SDS011;56315;-33.902;151.160;2022-07-22T11:59:17;10.10;;;3.63;;
44646;SDS011;56315;-33.902;151.160;2022-07-22T12:01:45;9.65;;;3.65;;
44646;SDS011;56315;-33.902;151.160;2022-07-22T12:04:23;9.73;;;3.85;;
44646;SDS011;56315;-33.902;151.160;2022-07-22T12:06:52;8.77;;;4.13;;
44646;SDS011;56315;-33.902;151.160;2022-07-22T12:09:22;15.45;;;4.80;;
44646;SDS011;56315;-33.902;151.160;2022-07-22T12:11:52;10.10;;;4.50;;
44646;SDS011;56315;-33.902;151.160;2022-07-22T12:14:28;12.75;;;5.03;;
44646;SDS011;56315;-33.902;151.160;2022-07-22T12:19:29;10.27;;;4.95;;
44646;SDS011;56315;-33.902;151.160;2022-07-22T12:22:01;12.32;;;5.13;;
44646;SDS011;56315;-33.902;151.160;2022-07-22T12:24:32;11.05;;;5.82;;
44646;SDS011;56315;-33.902;151.160;2022-07-22T12:27:02;11.15;;;5.13;;
44646;SDS011;56315;-33.902;151.160;2022-07-22T12:32:05;11.95;;;8.10;;
44646;SDS011;56315;-33.902;151.160;2022-07-22T12:34:42;14.52;;;5.72;;
44646;SDS011;56315;-33.902;151.160;2022-07-22T12:37:20;10.40;;;5.90;;
44646;SDS011;56315;-33.902;151.160;2022-07-22T12:40:06;11.43;;;5.13;;
44646;SDS011;56315;-33.902;151.160;2022-07-22T12:42:43;12.75;;;5.72;;
44646;SDS011;56315;-33.902;151.160;2022-07-22T12:45:14;9.15;;;5.32;;
44646;SDS011;56315;-33.902;151.160;2022-07-22T12:55:30;10.32;;;4.90;;
44646;SDS011;56315;-33.902;151.160;2022-07-22T12:57:59;13.35;;;5.10;;
44646;SDS011;56315;-33.902;151.160;2022-07-22T13:00:30;16.20;;;7.75;;
44646;SDS011;56315;-33.902;151.160;2022-07-22T13:03:02;17.23;;;9.75;;
44646;SDS011;56315;-33.902;151.160;2022-07-22T13:05:29;12.88;;;5.97;;
44646;SDS011;56315;-33.902;151.160;2022-07-22T13:07:57;11.63;;;5.25;;
44646;SDS011;56315;-33.902;151.160;2022-07-22T13:10:25;12.23;;;6.45;;
44646;SDS011;56315;-33.902;151.160;2022-07-22T13:12:52;10.13;;;5.40;;
44646;SDS011;56315;-33.902;151.160;2022-07-22T13:15:21;11.23;;;5.68;;
44646;SDS011;56315;-33.902;151.160;2022-07-22T13:17:49;8.60;;;5.15;;
44646;SDS011;56315;-33.902;151.160;2022-07-22T13:20:18;11.27;;;5.18;;
44646;SDS011;56315;-33.902;151.160;2022-07-22T13:22:47;10.15;;;5.07;;
44646;SDS011;56315;-33.902;151.160;2022-07-22T13:25:15;12.90;;;4.95;;
44646;SDS011;56315;-33.902;151.160;2022-07-22T13:27:43;9.35;;;4.65;;
44646;SDS011;56315;-33.902;151.160;2022-07-22T13:30:11;11.80;;;5.55;;
44646;SDS011;56315;-33.902;151.160;2022-07-22T13:32:39;10.38;;;5.15;;
44646;SDS011;56315;-33.902;151.160;2022-07-22T13:35:06;14.15;;;5.90;;
44646;SDS011;56315;-33.902;151.160;2022-07-22T13:37:34;13.13;;;5.60;;
44646;SDS011;56315;-33.902;151.160;2022-07-22T13:40:03;10.95;;;4.97;;
44646;SDS011;56315;-33.902;151.160;2022-07-22T13:42:31;14.60;;;6.78;;
44646;SDS011;56315;-33.902;151.160;2022-07-22T13:44:58;12.15;;;7.00;;
44646;SDS011;56315;-33.902;151.160;2022-07-22T13:47:25;13.15;;;6.82;;
44646;SDS011;56315;-33.902;151.160;2022-07-22T13:49:53;13.40;;;6.47;;
44646;SDS011;56315;-33.902;151.160;2022-07-22T13:52:22;11.07;;;6.82;;
44646;SDS011;56315;-33.902;151.160;2022-07-22T13:54:49;15.77;;;8.13;;
44646;SDS011;56315;-33.902;151.160;2022-07-22T13:57:17;16.00;;;8.23;;
44646;SDS011;56315;-33.902;151.160;2022-07-22T13:59:45;13.38;;;8.38;;
44646;SDS011;56315;-33.902;151.160;2022-07-22T14:02:12;16.25;;;8.77;;
44646;SDS011;56315;-33.902;151.160;2022-07-22T14:04:40;15.00;;;8.13;;
44646;SDS011;56315;-33.902;151.160;2022-07-22T14:07:07;14.10;;;8.50;;
44646;SDS011;56315;-33.902;151.160;2022-07-22T14:09:34;13.95;;;8.77;;
44646;SDS011;56315;-33.902;151.160;2022-07-22T14:12:02;14.45;;;8.50;;
44646;SDS011;56315;-33.902;151.160;2022-07-22T14:14:29;13.52;;;9.50;;
44646;SDS011;56315;-33.902;151.160;2022-07-22T14:16:56;15.02;;;8.60;;
44646;SDS011;56315;-33.902;151.160;2022-07-22T14:19:24;16.33;;;11.20;;
44646;SDS011;56315;-33.902;151.160;2022-07-22T14:21:51;13.00;;;10.18;;
44646;SDS011;56315;-33.902;151.160;2022-07-22T14:24:18;18.58;;;13.55;;
44646;SDS011;56315;-33.902;151.160;2022-07-22T14:26:47;17.60;;;11.32;;
44646;SDS011;56315;-33.902;151.160;2022-07-22T14:29:15;18.13;;;11.77;;
44646;SDS011;56315;-33.902;151.160;2022-07-22T14:31:42;19.98;;;12.90;;
44646;SDS011;56315;-33.902;151.160;2022-07-22T14:34:10;15.52;;;12.57;;
44646;SDS011;56315;-33.902;151.160;2022-07-22T14:36:37;14.82;;;11.85;;